»·PEaware :: N950CA KPAO-KTVL

N950CA :: KPAO-KTVL

FLIGHT INFORMATION

Flight Status: Arrived
Operator: Privately registered:
United States
More flights under this callsign
Pilot: Anonymous 28048 (28048)
Aircraft: BEECH AIRCRAFT BONANZA
(BE35)
More flights by this aircraft type
Origin: KPAO Palo Alto Of Santa Clara Co
United States
Destination: KTVL Lake Tahoe
United States
More flights between these airports :: More routes between these airports
Route: +SUNOL SWR
File this flight plan on PilotEdge
Remarks:
Altitude:
(Current/Filed)
9,000ft
Speed:
(Current/Filed)
150kts
Departed: 13-Aug-20 08:28 PM
Arrived: 13-Aug-20 09:33 PM
Distance/Time
Traveled:
132nm/1:05
Distance/Time
To Go:
Arrived

Flight Plot

Page will automatically refresh every two minutes.

Flight plan parsing failed; only flown route is shown


Map Options




Map Legend


Flown Route
Filed Route
Departure Airport
Arrival Airport
Navaid (VOR, NDB)
Fix

Horizontal Profiles

Position Reports

Time Latitude Longitude Heading Altitude Ground
Speed
13-Aug-20 20:15 37.454786 -122.114289 0 7ft 0kts
13-Aug-20 20:16 37.454786 -122.114289 0 7ft 0kts
13-Aug-20 20:17 37.454786 -122.114289 0 7ft 0kts
13-Aug-20 20:18 37.454787 -122.114289 0 7ft 0kts
13-Aug-20 20:19 37.454787 -122.114289 0 7ft 0kts
13-Aug-20 20:20 37.454787 -122.114289 0 7ft 0kts
13-Aug-20 20:21 37.454764 -122.113010 97 7ft 8kts
13-Aug-20 20:22 37.456387 -122.111574 323 7ft 9kts
13-Aug-20 20:23 37.457351 -122.112395 347 7ft 0kts
13-Aug-20 20:24 37.457353 -122.112395 347 7ft 0kts
13-Aug-20 20:25 37.457775 -122.112412 19 7ft 0kts
13-Aug-20 20:26 37.458198 -122.112151 330 7ft 6kts
13-Aug-20 20:27 37.473013 -122.124500 332 577ft 97kts
13-Aug-20 20:28 37.497050 -122.141506 329 1679ft 104kts
13-Aug-20 20:29 37.521668 -122.126255 66 2697ft 127kts
13-Aug-20 20:30 37.534208 -122.083940 78 3834ft 127kts
13-Aug-20 20:31 37.544620 -122.040900 74 4956ft 129kts
13-Aug-20 20:32 37.556009 -121.997799 75 6026ft 129kts
13-Aug-20 20:33 37.567375 -121.954882 75 7063ft 127kts
13-Aug-20 20:34 37.578553 -121.912619 75 8008ft 126kts
13-Aug-20 20:35 37.589667 -121.870527 76 8873ft 127kts
13-Aug-20 20:36 37.602259 -121.822556 75 8993ft 162kts
13-Aug-20 20:37 37.635708 -121.781141 39 8997ft 176kts
13-Aug-20 20:38 37.674766 -121.744216 40 8992ft 175kts
13-Aug-20 20:39 37.713685 -121.707109 40 8999ft 177kts
13-Aug-20 20:40 37.752899 -121.669647 40 8990ft 175kts
13-Aug-20 20:41 37.791844 -121.632384 40 8989ft 176kts
13-Aug-20 20:42 37.830770 -121.595070 40 8983ft 174kts
13-Aug-20 20:43 37.869402 -121.557996 40 8975ft 175kts
13-Aug-20 20:44 37.908459 -121.520474 40 8983ft 174kts
13-Aug-20 20:45 37.947172 -121.483229 40 8983ft 176kts
13-Aug-20 20:46 37.986217 -121.445617 40 8972ft 175kts
13-Aug-20 20:47 38.025129 -121.408077 39 8967ft 177kts
13-Aug-20 20:48 38.064181 -121.370356 39 8954ft 175kts
13-Aug-20 20:49 38.102748 -121.333052 39 8958ft 174kts
13-Aug-20 20:50 38.141390 -121.295621 39 8966ft 175kts
13-Aug-20 20:51 38.180007 -121.258164 38 8974ft 174kts
13-Aug-20 20:52 38.218472 -121.220803 38 8974ft 174kts
13-Aug-20 20:53 38.256985 -121.183345 38 8997ft 172kts
13-Aug-20 20:54 38.295239 -121.146087 38 9018ft 173kts
13-Aug-20 20:55 38.333613 -121.108663 38 9018ft 173kts
13-Aug-20 20:56 38.371919 -121.071254 38 9028ft 173kts
13-Aug-20 20:57 38.409106 -121.034920 38 9485ft 154kts
13-Aug-20 20:58 38.441366 -121.003395 38 10292ft 139kts
13-Aug-20 20:59 38.469326 -120.976036 39 11118ft 132kts
13-Aug-20 21:00 38.502819 -120.943067 39 11105ft 164kts
13-Aug-20 21:01 38.540247 -120.906251 39 11125ft 174kts
13-Aug-20 21:02 38.578833 -120.868302 39 11166ft 176kts
13-Aug-20 21:03 38.617511 -120.830189 39 11188ft 173kts
13-Aug-20 21:04 38.655892 -120.792301 39 11210ft 177kts
13-Aug-20 21:05 38.694717 -120.753936 39 11214ft 174kts
13-Aug-20 21:06 38.733301 -120.715761 39 11219ft 176kts
13-Aug-20 21:07 38.772176 -120.677236 39 11218ft 178kts
13-Aug-20 21:08 38.811228 -120.638494 38 11216ft 175kts
13-Aug-20 21:09 38.851086 -120.598904 38 10897ft 186kts
13-Aug-20 21:10 38.891556 -120.558633 38 10817ft 181kts
13-Aug-20 21:11 38.928321 -120.522032 39 11492ft 155kts
13-Aug-20 21:12 38.961822 -120.488622 39 12115ft 150kts
13-Aug-20 21:13 38.996025 -120.454423 39 12337ft 165kts
13-Aug-20 21:14 39.033347 -120.417033 39 12349ft 172kts
13-Aug-20 21:15 39.071580 -120.378726 39 12361ft 177kts
13-Aug-20 21:16 39.110442 -120.339753 38 12363ft 175kts
13-Aug-20 21:17 39.148769 -120.301277 38 12381ft 174kts
13-Aug-20 21:18 39.181241 -120.262754 68 12387ft 172kts
13-Aug-20 21:19 39.194248 -120.205217 77 12399ft 171kts
13-Aug-20 21:20 39.206660 -120.145550 76 12402ft 175kts
13-Aug-20 21:21 39.219580 -120.085285 76 12390ft 173kts
13-Aug-20 21:22 39.232296 -120.025471 76 12384ft 173kts
13-Aug-20 21:23 39.244829 -119.965600 77 12372ft 173kts
13-Aug-20 21:24 39.218417 -119.936316 204 11930ft 177kts
13-Aug-20 21:25 39.166466 -119.946102 187 10944ft 189kts
13-Aug-20 21:26 39.116855 -119.954456 190 10214ft 167kts
13-Aug-20 21:27 39.070076 -119.962443 190 9673ft 167kts
13-Aug-20 21:28 39.024616 -119.969985 190 8831ft 156kts
13-Aug-20 21:29 38.982979 -119.977184 189 7914ft 139kts
13-Aug-20 21:30 38.947318 -119.981491 186 7259ft 122kts
13-Aug-20 21:31 38.917037 -119.988566 192 6547ft 107kts
13-Aug-20 21:32 38.894898 -119.995024 194 6262ft 27kts
13-Aug-20 21:33 38.893090 -119.996594 12 6262ft 8kts
13-Aug-20 21:34 38.895277 -119.996577 88 6262ft 5kts
13-Aug-20 21:35 38.895463 -119.996442 269 6262ft 0kts

Navigation Log

Ident Type
Flight plan parsing failed, navigation log unavailable